Aviation Digital Data Service (ADDS)

Output produced by TAFs form (1901 UTC 19 September 2017)
found at http://www.aviationweather.gov/adds/tafs/
 
METAR text: OPKC 191855Z 21005KT 6000 NSC 27/24 Q1004 NOSIG
Conditions at: OPKC (KARACHI INTL ARP, PK) observed 1855 UTC 19 September 2017
Temperature: 27.0°C (81°F)
Dewpoint: 24.0°C (75°F) [RH = 84%]
Pressure (altimeter): 29.65 inches Hg (1004.0 mb)
Winds: from the SSW (210 degrees) at 6 MPH (5 knots; 2.6 m/s)
Visibility: 4 miles (6 km)
Ceiling: at least 12,000 feet AGL
Clouds: sky clear below 12,000 feet AGL
Weather: no significant weather observed at this time

Forecast for: OPKC (KARACHI INTL ARP, PK)
Text: TAF OPKC 191600Z 1918/2024 VRB03KT 5000 HZ NSC FM 2000/2006KT 7000 NSC FM 201600 24005KT 6000 SCT020
Forecast period: 1800 UTC 19 September 2017 to 1600 UTC 20 September 2017
Forecast type: FROM: standard forecast or significant change
Winds: variable direction winds at 3 MPH (3 knots; 1.6 m/s)
Visibility: 3 miles (5 km)
Clouds: not forecast
Weather: HZ  (haze)
Text:
Forecast period: 1600 UTC 20 September 2017 to 0000 UTC 21 September 2017
Forecast type: FROM: standard forecast or significant change
Winds: from the WSW (240 degrees) at 6 MPH (5 knots; 2.6 m/s)
Visibility: 4 miles (6 km)
Clouds: scattered clouds at 2000 feet AGL
Weather: no significant weather forecast for this period